Time;durP1;ratioP1;P1;durP2;ratioP2;P2;SDS_P1;SDS_P2;PMS_P1;PMS_P2;Temp;Humidity;BMP_temperature;BMP_pressure;BME280_temperature;BME280_humidity;BME280_pressure;Samples;Min_cycle;Max_cycle;Signal;HPM_P1;HPM_P2
2022/09/13 00:00:34;;;;;;;;;;;;;;;18.34;85.86;101032.41;1985245;29;19925;-70
2022/09/13 00:01:36;;;;;;;;;;;;;;;18.36;85.98;101029.28;1985626;29;19928;-70
2022/09/13 00:02:38;;;;;;;;;;;;;;;18.34;86.27;101024.22;1984232;29;20012;-69
2022/09/13 00:03:40;;;;;;;;;;;;;;;18.40;86.21;101032.84;1978220;29;19937;-69
2022/09/13 00:04:43;;;;;;;;;;;;;;;18.37;86.35;101023.44;1984766;29;20604;-69
2022/09/13 00:05:45;;;;;;;;;;;;;;;18.31;86.50;101026.94;1984520;29;19929;-69
2022/09/13 00:06:47;;;;;;;;;;;;;;;18.34;87.48;101017.94;1984462;29;19936;-69
2022/09/13 00:07:52;;;;;;;;;;;;;;;18.33;87.74;101017.16;1993014;29;19951;-69
2022/09/13 00:08:57;;;;;;;;;;;;;;;18.34;86.95;101026.94;1992358;29;20294;-69
2022/09/13 00:09:58;;;;;;;;;;;;;;;18.39;87.44;101020.34;1993122;29;19958;-69
2022/09/13 00:11:01;;;;;;;;;;;;;;;18.37;86.92;101012.50;1992119;29;20456;-69
2022/09/13 00:12:03;;;;;;;;;;;;;;;18.42;87.23;101011.34;1992417;29;20354;-69
2022/09/13 00:13:06;;;;;;;;;;;;;;;18.38;87.18;101019.56;1992882;29;19929;-69
2022/09/13 00:14:08;;;;;;;;;;;;;;;18.36;87.05;101016.38;1992479;29;20027;-69
2022/09/13 00:15:11;;;;;;;;;;;;;;;18.37;87.29;101000.78;1982932;29;20418;-70
2022/09/13 00:16:15;;;;;;;;;;;;;;;18.31;88.04;101008.59;1983723;29;20260;-68
2022/09/13 00:17:18;;;;;;;;;;;;;;;18.36;87.56;100999.97;1992672;29;20433;-70
2022/09/13 00:18:19;;;;;;;;;;;;;;;18.40;88.29;101003.56;1993530;29;20084;-69
2022/09/13 00:19:22;;;;;;;;;;;;;;;18.37;87.66;101008.97;1992637;29;19929;-68
2022/09/13 00:20:24;;;;;;;;;;;;;;;18.41;87.18;101001.59;1992187;29;20453;-69
2022/09/13 00:21:27;;;;;;;;;;;;;;;18.40;87.18;101000.81;1992479;29;19937;-68
2022/09/13 00:22:29;;;;;;;;;;;;;;;18.40;87.87;100998.09;1984073;29;19929;-69
2022/09/13 00:23:32;;;;;;;;;;;;;;;18.42;87.73;100997.69;1984323;29;20356;-68
2022/09/13 00:24:36;;;;;;;;;;;;;;;18.42;87.39;100992.22;1991897;29;20405;-69
2022/09/13 00:25:38;;;;;;;;;;;;;;;18.42;87.63;100995.75;1991129;29;19928;-71
2022/09/13 00:26:40;;;;;;;;;;;;;;;18.44;87.18;100990.66;1990188;29;19982;-69
2022/09/13 00:27:43;;;;;;;;;;;;;;;18.46;87.13;100993.78;1992568;29;19928;-68
2022/09/13 00:28:47;;;;;;;;;;;;;;;18.49;87.05;100987.53;1992594;29;19925;-69
2022/09/13 00:29:50;;;;;;;;;;;;;;;18.49;87.04;100994.97;1992567;29;20309;-70
2022/09/13 00:30:52;;;;;;;;;;;;;;;18.48;86.85;100988.72;1991924;29;20472;-70
2022/09/13 00:31:54;;;;;;;;;;;;;;;18.46;86.94;100988.31;1991883;29;19925;-70
2022/09/13 00:32:56;;;;;;;;;;;;;;;18.44;87.00;100990.66;1993297;29;19928;-70
2022/09/13 00:33:59;;;;;;;;;;;;;;;18.44;87.06;100987.16;1992585;29;19973;-69
2022/09/13 00:35:02;;;;;;;;;;;;;;;18.43;87.20;100988.31;1993075;29;19972;-70
2022/09/13 00:36:05;;;;;;;;;;;;;;;18.44;87.18;100987.16;1992167;29;20420;-70
2022/09/13 00:37:07;;;;;;;;;;;;;;;18.43;87.12;100985.56;1992722;29;20266;-69
2022/09/13 00:38:10;;;;;;;;;;;;;;;18.44;87.18;100987.91;1992631;29;19939;-69
2022/09/13 00:39:12;;;;;;;;;;;;;;;18.46;87.00;100976.59;1992198;29;19945;-70
2022/09/13 00:40:16;;;;;;;;;;;;;;;18.42;87.70;100990.28;1991632;29;19928;-70
2022/09/13 00:41:18;;;;;;;;;;;;;;;18.43;87.49;100989.09;1992513;29;20822;-70
2022/09/13 00:42:24;;;;;;;;;;;;;;;18.39;87.19;100982.84;1993180;29;19940;-71
2022/09/13 00:43:44;;;;;;;;;;;;;;;18.42;87.55;100984.81;1992405;29;20393;-69
2022/09/13 00:44:54;;;;;;;;;;;;;;;18.42;87.43;100993.00;1984528;29;19933;-68
2022/09/13 00:45:56;;;;;;;;;;;;;;;18.45;87.26;100983.25;1985715;29;19932;-71
2022/09/13 00:46:59;;;;;;;;;;;;;;;18.43;87.42;100978.16;1983306;29;19968;-69
2022/09/13 00:48:04;;;;;;;;;;;;;;;18.41;87.67;100987.94;1984692;29;20413;-70
2022/09/13 00:49:12;;;;;;;;;;;;;;;18.37;87.72;100979.69;1991997;29;19990;-69
2022/09/13 00:50:18;;;;;;;;;;;;;;;18.36;87.37;100980.84;1992355;29;20382;-70
2022/09/13 00:51:20;;;;;;;;;;;;;;;18.34;87.46;100976.94;1992857;29;20650;-70
2022/09/13 00:52:24;;;;;;;;;;;;;;;18.30;87.67;100979.69;1991725;29;19939;-70
2022/09/13 00:53:30;;;;;;;;;;;;;;;18.26;87.84;100980.84;1992332;29;20772;-69
2022/09/13 00:54:35;;;;;;;;;;;;;;;18.25;87.81;100977.31;1992021;29;19939;-69
2022/09/13 00:55:42;;;;;;;;;;;;;;;18.26;88.02;100978.91;1991575;29;20051;-69
2022/09/13 00:56:46;;;;;;;;;;;;;;;18.26;88.02;100975.38;1991838;29;19928;-70
2022/09/13 00:57:49;;;;;;;;;;;;;;;18.25;87.85;100971.09;1984059;29;20336;-69
2022/09/13 00:58:53;;;;;;;;;;;;;;;18.20;87.99;100974.19;1984146;29;20507;-70
2022/09/13 00:59:59;;;;;;;;;;;;;;;18.20;88.23;100974.19;1991904;29;20331;-69
2022/09/13 01:01:02;;;;;;;;;;;;;;;18.14;88.42;100970.28;1991626;29;19960;-69
2022/09/13 01:02:05;;;;;;;;;;;;;;;18.13;88.38;100969.50;1992434;29;20342;-69
2022/09/13 01:03:10;;;;;;;;;;;;;;;18.12;88.70;100967.16;1992167;29;20047;-69
2022/09/13 01:04:14;;;;;;;;;;;;;;;18.12;88.63;100967.94;1992303;29;19928;-70
2022/09/13 01:05:17;;;;;;;;;;;;;;;18.15;88.51;100967.16;1991980;29;20463;-69
2022/09/13 01:06:22;;;;;;;;;;;;;;;18.15;88.55;100972.63;1992099;29;20608;-69
2022/09/13 01:07:24;;;;;;;;;;;;;;;18.15;88.53;100961.72;1992429;29;19977;-69
2022/09/13 01:08:30;;;;;;;;;;;;;;;18.17;88.68;100955.84;1992601;29;19950;-69
2022/09/13 01:09:35;;;;;;;;;;;;;;;18.20;88.27;100955.06;1991959;29;20663;-69
2022/09/13 01:10:40;;;;;;;;;;;;;;;18.19;88.03;100964.44;1991354;29;19929;-69
2022/09/13 01:11:46;;;;;;;;;;;;;;;18.14;88.30;100971.06;1992707;29;20658;-70
2022/09/13 01:12:52;;;;;;;;;;;;;;;18.14;88.38;100965.59;1991646;29;20378;-69
2022/09/13 01:13:54;;;;;;;;;;;;;;;18.14;88.35;100953.91;1991054;29;19931;-69
2022/09/13 01:14:57;;;;;;;;;;;;;;;18.14;88.58;100956.63;1991773;29;20289;-68
2022/09/13 01:15:59;;;;;;;;;;;;;;;18.14;88.50;100960.13;1991690;29;19928;-70
2022/09/13 01:17:02;;;;;;;;;;;;;;;18.10;88.87;100953.88;1992135;29;20555;-70
2022/09/13 01:18:04;;;;;;;;;;;;;;;18.12;88.50;100943.34;1991918;29;20012;-70
2022/09/13 01:19:07;;;;;;;;;;;;;;;18.15;88.62;100944.53;1992386;29;19932;-70
2022/09/13 01:20:10;;;;;;;;;;;;;;;18.15;88.93;100948.03;1992047;29;19933;-71
2022/09/13 01:21:40;;;;;;;;;;;;;;;18.18;88.63;100947.25;1992018;29;20385;-70
2022/09/13 01:23:01;;;;;;;;;;;;;;;18.16;88.54;100938.66;1954160;30;20009;-69
2022/09/13 01:24:19;;;;;;;;;;;;;;;18.14;88.78;100941.00;1984909;29;19929;-69
2022/09/13 01:25:39;;;;;;;;;;;;;;;18.14;88.44;100942.97;1991532;29;19929;-68
2022/09/13 01:27:04;;;;;;;;;;;;;;;18.14;88.48;100942.97;1990791;29;20746;-68
2022/09/13 01:28:11;;;;;;;;;;;;;;;18.11;88.61;100944.50;1993284;29;20017;-69
2022/09/13 01:29:33;;;;;;;;;;;;;;;18.09;88.99;100938.69;1991674;29;20301;-70
2022/09/13 01:30:37;;;;;;;;;;;;;;;18.09;89.02;100938.69;1991137;29;19936;-68
2022/09/13 01:31:43;;;;;;;;;;;;;;;18.08;88.81;100933.56;1992057;29;19929;-69
2022/09/13 01:33:03;;;;;;;;;;;;;;;18.08;89.25;100936.31;1991739;29;19968;-69
2022/09/13 01:34:13;;;;;;;;;;;;;;;18.07;88.85;100941.00;1992281;29;19928;-69
2022/09/13 01:35:22;;;;;;;;;;;;;;;18.06;89.08;100936.69;1991581;29;19996;-69
2022/09/13 01:36:35;;;;;;;;;;;;;;;18.05;88.89;100937.06;1992236;29;20500;-69
2022/09/13 01:37:46;;;;;;;;;;;;;;;18.09;88.69;100941.41;1992379;29;19929;-69
2022/09/13 01:38:56;;;;;;;;;;;;;;;18.09;89.18;100940.63;1991128;29;20047;-70
2022/09/13 01:40:05;;;;;;;;;;;;;;;18.08;88.86;100930.84;1991803;29;20003;-69
2022/09/13 01:41:16;;;;;;;;;;;;;;;18.07;88.88;100930.06;1992401;29;19940;-69
2022/09/13 01:42:23;;;;;;;;;;;;;;;18.08;89.14;100928.09;1991606;29;20243;-69
2022/09/13 01:43:32;;;;;;;;;;;;;;;18.07;89.13;100923.81;1984877;29;19925;-69
2022/09/13 01:44:42;;;;;;;;;;;;;;;18.07;89.04;100926.56;1985525;29;19929;-69
2022/09/13 01:45:51;;;;;;;;;;;;;;;18.10;89.02;100921.09;1991367;29;19929;-70
2022/09/13 01:46:58;;;;;;;;;;;;;;;18.09;88.89;100927.75;1992213;29;20001;-69
2022/09/13 01:48:05;;;;;;;;;;;;;;;18.08;89.15;100923.44;1992126;29;19929;-69
2022/09/13 01:49:14;;;;;;;;;;;;;;;18.07;89.34;100924.59;1991945;29;19928;-70
2022/09/13 01:50:20;;;;;;;;;;;;;;;18.06;89.29;100928.50;1991527;29;20412;-69
2022/09/13 01:51:25;;;;;;;;;;;;;;;18.07;89.49;100932.81;1992090;29;20677;-69
2022/09/13 01:52:35;;;;;;;;;;;;;;;18.07;89.07;100932.00;1983851;29;19940;-69
2022/09/13 01:53:39;;;;;;;;;;;;;;;18.06;89.16;100931.22;1984887;29;19925;-70
2022/09/13 01:54:48;;;;;;;;;;;;;;;18.04;89.53;100936.31;1983361;29;19932;-70
2022/09/13 01:55:53;;;;;;;;;;;;;;;18.04;89.56;100919.94;1985193;29;20306;-70
2022/09/13 01:57:03;;;;;;;;;;;;;;;18.06;89.48;100930.47;1991450;29;19924;-70
2022/09/13 01:58:08;;;;;;;;;;;;;;;18.04;89.62;100928.13;1983832;29;19936;-70
2022/09/13 01:59:14;;;;;;;;;;;;;;;18.06;89.40;100928.50;1983709;29;19933;-69
2022/09/13 02:00:17;;;;;;;;;;;;;;;18.05;89.61;100929.66;1985109;29;19929;-70
2022/09/13 02:01:24;;;;;;;;;;;;;;;18.03;89.78;100926.53;1991881;29;19973;-70
2022/09/13 02:02:30;;;;;;;;;;;;;;;18.05;89.84;100926.94;1991910;29;20015;-71
2022/09/13 02:03:36;;;;;;;;;;;;;;;18.04;89.97;100919.94;1991747;29;20393;-70
2022/09/13 02:04:40;;;;;;;;;;;;;;;18.04;89.93;100928.13;1991184;29;20524;-71
2022/09/13 02:05:46;;;;;;;;;;;;;;;18.04;90.07;100927.31;1991978;29;19932;-70
2022/09/13 02:06:49;;;;;;;;;;;;;;;18.06;89.73;100920.28;1984835;29;19929;-70
2022/09/13 02:07:55;;;;;;;;;;;;;;;18.07;90.24;100918.34;1983830;29;19979;-70
2022/09/13 02:08:59;;;;;;;;;;;;;;;18.08;89.96;100926.16;1991058;29;19935;-70
2022/09/13 02:10:06;;;;;;;;;;;;;;;18.08;89.97;100934.34;1991327;29;19997;-70
2022/09/13 02:11:09;;;;;;;;;;;;;;;18.11;89.73;100933.56;1991605;29;20003;-71
2022/09/13 02:12:15;;;;;;;;;;;;;;;18.15;89.90;100930.84;1992060;29;19925;-71
2022/09/13 02:13:20;;;;;;;;;;;;;;;18.16;89.60;100935.94;1992164;29;19929;-70
2022/09/13 02:14:26;;;;;;;;;;;;;;;18.22;89.54;100926.16;1991365;29;19935;-70
2022/09/13 02:15:31;;;;;;;;;;;;;;;18.26;89.37;100931.66;1991861;29;20380;-69
2022/09/13 02:16:37;;;;;;;;;;;;;;;18.27;88.95;100942.19;1991336;29;19992;-68
2022/09/13 02:17:41;;;;;;;;;;;;;;;18.31;89.11;100943.00;1991446;29;19933;-68
2022/09/13 02:18:47;;;;;;;;;;;;;;;18.35;89.29;100942.97;1992597;29;19928;-68
2022/09/13 02:19:51;;;;;;;;;;;;;;;18.37;88.87;100946.88;1992028;29;19981;-68
2022/09/13 02:20:57;;;;;;;;;;;;;;;18.39;88.73;100939.13;1991912;29;20430;-69
2022/09/13 02:21:59;;;;;;;;;;;;;;;18.41;88.48;100944.97;1976262;30;20374;-69
2022/09/13 02:23:04;;;;;;;;;;;;;;;18.43;88.43;100947.28;1976513;29;19925;-69
2022/09/13 02:24:06;;;;;;;;;;;;;;;18.43;88.40;100953.56;1991785;29;19934;-70
2022/09/13 02:25:10;;;;;;;;;;;;;;;18.44;88.04;100952.38;1991537;29;20376;-69
2022/09/13 02:26:13;;;;;;;;;;;;;;;18.44;87.97;100960.56;1991496;29;19929;-69
2022/09/13 02:27:21;;;;;;;;;;;;;;;18.43;87.60;100959.03;1991931;29;19930;-69
2022/09/13 02:28:27;;;;;;;;;;;;;;;18.43;87.27;100966.44;1991834;29;19937;-69
2022/09/13 02:29:31;;;;;;;;;;;;;;;18.42;87.21;100965.66;1991627;29;20262;-69
2022/09/13 02:30:34;;;;;;;;;;;;;;;18.42;87.54;100962.94;1992251;29;19928;-69
2022/09/13 02:31:41;;;;;;;;;;;;;;;18.42;87.34;100964.88;1991001;29;19929;-69
2022/09/13 02:32:49;;;;;;;;;;;;;;;18.35;86.23;100960.16;1990536;29;20374;-70
2022/09/13 02:33:54;;;;;;;;;;;;;;;18.32;86.42;100966.41;1992039;29;19925;-69
2022/09/13 02:34:59;;;;;;;;;;;;;;;18.29;86.07;100956.25;1991264;29;20293;-69
2022/09/13 02:36:04;;;;;;;;;;;;;;;18.25;85.75;100958.19;1991546;29;19973;-69
2022/09/13 02:37:08;;;;;;;;;;;;;;;18.24;85.67;100958.56;1992347;29;20019;-68
2022/09/13 02:38:13;;;;;;;;;;;;;;;18.23;85.88;100960.56;1991322;29;20394;-68
2022/09/13 02:39:16;;;;;;;;;;;;;;;18.23;85.67;100957.81;1991352;29;19929;-69
2022/09/13 02:40:22;;;;;;;;;;;;;;;18.25;86.73;100950.00;1990892;29;19975;-69
2022/09/13 02:41:29;;;;;;;;;;;;;;;18.28;86.63;100951.19;1991398;29;19933;-69
2022/09/13 02:42:36;;;;;;;;;;;;;;;18.29;86.02;100950.78;1991692;29;19929;-69
2022/09/13 02:43:40;;;;;;;;;;;;;;;18.30;86.06;100951.56;1990561;29;19925;-69
2022/09/13 02:44:45;;;;;;;;;;;;;;;18.32;85.98;100954.69;1991588;29;19940;-69
2022/09/13 02:45:51;;;;;;;;;;;;;;;18.33;85.83;100948.06;1991522;29;19936;-69
2022/09/13 02:47:00;;;;;;;;;;;;;;;18.34;85.81;100950.41;1990357;29;19976;-70
2022/09/13 02:48:04;;;;;;;;;;;;;;;18.34;85.47;100947.66;1990616;29;20489;-70
2022/09/13 02:49:13;;;;;;;;;;;;;;;18.32;85.43;100952.75;1992515;29;19925;-70
2022/09/13 02:50:21;;;;;;;;;;;;;;;18.31;85.26;100947.66;1991618;29;19928;-70
2022/09/13 02:51:29;;;;;;;;;;;;;;;18.31;85.02;100953.13;1991517;29;19933;-71
2022/09/13 02:52:36;;;;;;;;;;;;;;;18.30;85.31;100951.56;1991520;29;19933;-70
2022/09/13 02:53:42;;;;;;;;;;;;;;;18.32;86.03;100947.28;1984420;29;19936;-70
2022/09/13 02:54:50;;;;;;;;;;;;;;;18.36;86.17;100942.56;1984945;29;19987;-71
2022/09/13 02:55:59;;;;;;;;;;;;;;;18.38;86.24;100944.94;1992800;29;19928;-69
2022/09/13 02:57:04;;;;;;;;;;;;;;;18.40;85.47;100942.63;1991790;29;20408;-70
2022/09/13 02:58:11;;;;;;;;;;;;;;;18.42;85.56;100949.28;1991232;29;19932;-71
2022/09/13 02:59:14;;;;;;;;;;;;;;;18.44;85.68;100943.41;1992074;29;19936;-71
2022/09/13 03:00:18;;;;;;;;;;;;;;;18.44;86.00;100941.44;1991698;29;19948;-70
2022/09/13 03:01:20;;;;;;;;;;;;;;;18.46;85.31;100951.97;1990657;29;19933;-71
2022/09/13 03:02:27;;;;;;;;;;;;;;;18.47;85.19;100943.38;1992153;29;20012;-71
2022/09/13 03:03:29;;;;;;;;;;;;;;;18.48;85.08;100947.69;1991159;29;20347;-71
2022/09/13 03:04:32;;;;;;;;;;;;;;;18.48;85.33;100952.38;1991032;29;19933;-71
2022/09/13 03:05:34;;;;;;;;;;;;;;;18.49;85.33;100949.25;1992211;29;19932;-71
2022/09/13 03:06:37;;;;;;;;;;;;;;;18.49;84.87;100957.47;1991502;29;19924;-71
2022/09/13 03:07:40;;;;;;;;;;;;;;;18.50;85.05;100950.03;1991451;29;20389;-71
2022/09/13 03:08:42;;;;;;;;;;;;;;;18.50;85.41;100961.78;1991482;29;20389;-70
2022/09/13 03:09:46;;;;;;;;;;;;;;;18.48;85.00;100955.91;1991484;29;20650;-71
2022/09/13 03:10:56;;;;;;;;;;;;;;;18.48;84.95;100961.38;1991148;29;19928;-71
2022/09/13 03:12:13;;;;;;;;;;;;;;;18.48;84.87;100958.63;1991493;29;19929;-71
2022/09/13 03:13:31;;;;;;;;;;;;;;;18.46;84.62;100960.97;1989861;29;19929;-70
2022/09/13 03:14:39;;;;;;;;;;;;;;;18.47;85.00;100968.00;1991794;29;19940;-70
2022/09/13 03:15:50;;;;;;;;;;;;;;;18.47;84.93;100959.03;1991763;29;20386;-70
2022/09/13 03:17:02;;;;;;;;;;;;;;;18.47;84.42;100964.50;1992444;29;19948;-70
2022/09/13 03:18:14;;;;;;;;;;;;;;;18.48;85.38;100960.59;1991556;29;19933;-70
2022/09/13 03:19:21;;;;;;;;;;;;;;;18.47;85.58;100951.59;1991458;29;19928;-71
2022/09/13 03:20:32;;;;;;;;;;;;;;;18.49;85.40;100953.97;1991133;29;20404;-69
2022/09/13 03:21:47;;;;;;;;;;;;;;;18.49;85.22;100954.72;1991348;29;20353;-69
2022/09/13 03:23:20;;;;;;;;;;;;;;;18.48;85.03;100953.16;1991137;29;19936;-70
2022/09/13 03:24:24;;;;;;;;;;;;;;;18.50;84.99;100956.31;1959330;30;19930;-70
2022/09/13 03:25:33;;;;;;;;;;;;;;;18.50;85.34;100956.31;1959248;30;20401;-70
2022/09/13 03:26:40;;;;;;;;;;;;;;;18.49;85.06;100959.44;1966273;29;19930;-70
2022/09/13 03:27:52;;;;;;;;;;;;;;;18.48;84.74;100963.31;1991229;29;19929;-70
2022/09/13 03:29:01;;;;;;;;;;;;;;;18.47;84.69;100962.53;1991803;29;20350;-70
2022/09/13 03:30:05;;;;;;;;;;;;;;;18.45;84.79;100962.16;1991373;29;19924;-70
2022/09/13 03:31:09;;;;;;;;;;;;;;;18.45;84.98;100961.38;1991207;29;19964;-69
2022/09/13 03:32:18;;;;;;;;;;;;;;;18.44;84.94;100963.31;1991182;29;20346;-69
2022/09/13 03:33:25;;;;;;;;;;;;;;;18.44;85.20;100957.84;1990524;29;19936;-70
2022/09/13 03:34:31;;;;;;;;;;;;;;;18.43;84.76;100966.44;1990831;29;20330;-70
2022/09/13 03:35:38;;;;;;;;;;;;;;;18.45;85.25;100969.56;1991815;29;20712;-70
2022/09/13 03:36:44;;;;;;;;;;;;;;;18.44;85.47;100963.31;1991498;29;20386;-70
2022/09/13 03:37:52;;;;;;;;;;;;;;;18.45;85.31;100970.34;1991489;29;20317;-70
2022/09/13 03:38:59;;;;;;;;;;;;;;;18.45;84.93;100969.56;1991714;29;19972;-70
2022/09/13 03:40:05;;;;;;;;;;;;;;;18.44;84.79;100978.94;1992106;29;19928;-70
2022/09/13 03:41:11;;;;;;;;;;;;;;;18.40;84.80;100976.22;1991738;29;19929;-70
2022/09/13 03:42:18;;;;;;;;;;;;;;;18.37;85.06;100976.97;1992702;29;19929;-70
2022/09/13 03:43:25;;;;;;;;;;;;;;;18.34;85.00;100971.47;1991818;29;20019;-70
2022/09/13 03:44:28;;;;;;;;;;;;;;;18.32;85.07;100974.59;1984386;29;20368;-71
2022/09/13 03:45:34;;;;;;;;;;;;;;;18.31;85.08;100981.25;1976862;29;20030;-71
2022/09/13 03:46:37;;;;;;;;;;;;;;;18.30;85.27;100979.69;1984895;29;19929;-70
2022/09/13 03:47:43;;;;;;;;;;;;;;;18.29;85.37;100971.88;1985537;29;20456;-71
2022/09/13 03:48:46;;;;;;;;;;;;;;;18.26;85.14;100967.97;1985712;29;21378;-70
2022/09/13 03:49:50;;;;;;;;;;;;;;;18.23;84.97;100976.94;1985952;29;20824;-70
2022/09/13 03:50:53;;;;;;;;;;;;;;;18.21;84.75;100973.81;1977385;30;20338;-70
2022/09/13 03:51:56;;;;;;;;;;;;;;;18.21;85.00;100973.03;1977621;29;20287;-71
2022/09/13 03:52:59;;;;;;;;;;;;;;;18.20;85.28;100969.53;1984784;29;19929;-70
2022/09/13 03:54:04;;;;;;;;;;;;;;;18.19;85.57;100967.19;1985319;29;20008;-70
2022/09/13 03:55:06;;;;;;;;;;;;;;;18.19;85.37;100973.41;1984604;29;19940;-70
2022/09/13 03:56:13;;;;;;;;;;;;;;;18.20;85.33;100966.78;1984890;29;19968;-70
2022/09/13 03:57:16;;;;;;;;;;;;;;;18.20;85.28;100963.28;1984592;29;19932;-70
2022/09/13 03:58:20;;;;;;;;;;;;;;;18.18;85.53;100963.66;1979810;29;19925;-69
2022/09/13 03:59:22;;;;;;;;;;;;;;;18.18;85.68;100960.94;1981523;29;19933;-69
2022/09/13 04:00:25;;;;;;;;;;;;;;;18.18;85.76;100955.47;1985026;29;19929;-70
2022/09/13 04:01:27;;;;;;;;;;;;;;;18.15;85.38;100967.16;1985090;29;19968;-70
2022/09/13 04:02:29;;;;;;;;;;;;;;;18.16;85.67;100957.00;1985190;29;20010;-70
2022/09/13 04:03:31;;;;;;;;;;;;;;;18.14;85.55;100962.84;1984837;29;19974;-70
2022/09/13 04:04:36;;;;;;;;;;;;;;;18.15;85.25;100963.66;1985470;29;20397;-69
2022/09/13 04:05:38;;;;;;;;;;;;;;;18.14;85.49;100962.84;1985722;29;19929;-70
2022/09/13 04:06:40;;;;;;;;;;;;;;;18.14;85.33;100965.59;1983454;29;20391;-71
2022/09/13 04:07:42;;;;;;;;;;;;;;;18.14;85.43;100971.06;1984657;29;20406;-70
2022/09/13 04:08:44;;;;;;;;;;;;;;;18.15;85.31;100977.31;1977898;29;19929;-70
2022/09/13 04:09:46;;;;;;;;;;;;;;;18.15;85.48;100966.38;1977637;29;20024;-70
2022/09/13 04:10:50;;;;;;;;;;;;;;;18.13;85.42;100971.44;1985189;29;19929;-70
2022/09/13 04:11:52;;;;;;;;;;;;;;;18.12;85.30;100973.41;1977604;30;19964;-70
2022/09/13 04:12:54;;;;;;;;;;;;;;;18.12;85.61;100965.22;1977564;29;19929;-70
2022/09/13 04:13:57;;;;;;;;;;;;;;;18.09;85.43;100968.72;1985867;29;19948;-70
2022/09/13 04:14:59;;;;;;;;;;;;;;;18.06;85.87;100964.00;1985065;29;20028;-70
2022/09/13 04:16:02;;;;;;;;;;;;;;;18.02;85.67;100965.97;1983337;29;20048;-71
2022/09/13 04:17:05;;;;;;;;;;;;;;;18.00;85.83;100965.56;1985029;29;20364;-69
2022/09/13 04:18:07;;;;;;;;;;;;;;;17.96;85.85;100967.53;1984678;29;19929;-70
2022/09/13 04:19:10;;;;;;;;;;;;;;;17.92;86.05;100964.78;1985342;29;19979;-70
2022/09/13 04:20:13;;;;;;;;;;;;;;;17.88;86.69;100965.94;1985421;29;19933;-70
2022/09/13 04:21:17;;;;;;;;;;;;;;;17.87;86.50;100978.00;1977237;29;19963;-70
2022/09/13 04:22:18;;;;;;;;;;;;;;;17.83;86.41;100969.84;1977021;29;19930;-69
2022/09/13 04:23:21;;;;;;;;;;;;;;;17.82;86.52;100970.97;1985317;29;19932;-70
2022/09/13 04:24:24;;;;;;;;;;;;;;;17.81;86.93;100968.63;1977026;30;19937;-70
2022/09/13 04:25:27;;;;;;;;;;;;;;;17.80;86.95;100967.09;1976860;29;20371;-70
2022/09/13 04:26:29;;;;;;;;;;;;;;;17.78;86.96;100969.41;1983901;29;19933;-70
2022/09/13 04:27:31;;;;;;;;;;;;;;;17.78;87.09;100972.16;1983854;29;19925;-71
2022/09/13 04:28:33;;;;;;;;;;;;;;;17.77;86.70;100973.31;1985478;29;19933;-70
2022/09/13 04:29:35;;;;;;;;;;;;;;;17.77;87.13;100973.31;1984029;29;19925;-71
2022/09/13 04:30:37;;;;;;;;;;;;;;;17.77;86.83;100970.59;1984260;29;20129;-71
2022/09/13 04:31:44;;;;;;;;;;;;;;;17.77;86.85;100976.06;1984919;29;19937;-71
2022/09/13 04:32:48;;;;;;;;;;;;;;;17.77;86.51;100979.53;1984148;29;19981;-71
2022/09/13 04:33:49;;;;;;;;;;;;;;;17.77;87.19;100978.78;1985362;29;19929;-69
2022/09/13 04:34:52;;;;;;;;;;;;;;;17.74;87.78;100974.09;1984853;29;20114;-70
2022/09/13 04:35:58;;;;;;;;;;;;;;;17.75;87.32;100981.09;1985140;29;19929;-70
2022/09/13 04:37:01;;;;;;;;;;;;;;;17.73;87.61;100983.44;1983865;29;19972;-70
2022/09/13 04:38:02;;;;;;;;;;;;;;;17.72;87.12;100985.41;1985130;29;19933;-70
2022/09/13 04:39:05;;;;;;;;;;;;;;;17.72;87.37;100974.47;1977022;30;20107;-71
2022/09/13 04:40:08;;;;;;;;;;;;;;;17.71;87.11;100981.09;1970134;30;19941;-70
2022/09/13 04:41:12;;;;;;;;;;;;;;;17.71;87.39;100985.78;1977302;29;19932;-71
2022/09/13 04:42:14;;;;;;;;;;;;;;;17.70;87.43;100990.47;1984997;29;19929;-70
2022/09/13 04:43:16;;;;;;;;;;;;;;;17.71;87.33;100991.25;1984996;29;20413;-70
2022/09/13 04:44:19;;;;;;;;;;;;;;;17.71;86.83;100989.28;1985219;29;19936;-71
2022/09/13 04:45:22;;;;;;;;;;;;;;;17.72;87.10;100987.34;1976093;29;19929;-71
2022/09/13 04:46:24;;;;;;;;;;;;;;;17.73;87.35;100995.16;1977001;29;19933;-71
2022/09/13 04:47:26;;;;;;;;;;;;;;;17.75;87.40;100989.31;1984898;29;19925;-71
2022/09/13 04:48:28;;;;;;;;;;;;;;;17.75;87.18;100992.03;1984322;29;20293;-70
2022/09/13 04:49:31;;;;;;;;;;;;;;;17.76;87.56;100991.66;1985190;29;19976;-70
2022/09/13 04:50:32;;;;;;;;;;;;;;;17.77;87.11;101001.41;1984653;29;19933;-70
2022/09/13 04:51:38;;;;;;;;;;;;;;;17.77;87.49;100990.47;1985411;29;20405;-70
2022/09/13 04:52:40;;;;;;;;;;;;;;;17.79;87.26;100998.31;1985103;29;19974;-70
2022/09/13 04:53:42;;;;;;;;;;;;;;;17.79;86.90;101003.78;1985109;29;19932;-70
2022/09/13 04:54:46;;;;;;;;;;;;;;;17.78;87.22;101000.25;1985279;29;19961;-70
2022/09/13 04:55:48;;;;;;;;;;;;;;;17.78;87.37;100999.44;1976792;29;20005;-71
2022/09/13 04:56:50;;;;;;;;;;;;;;;17.78;87.72;101010.38;1979187;29;19943;-70
2022/09/13 04:57:52;;;;;;;;;;;;;;;17.78;86.95;101004.91;1976997;29;20334;-70
2022/09/13 04:58:55;;;;;;;;;;;;;;;17.79;86.84;101015.47;1977497;29;19929;-69
2022/09/13 04:59:57;;;;;;;;;;;;;;;17.78;87.20;101013.13;1984317;29;19945;-70
2022/09/13 05:01:03;;;;;;;;;;;;;;;17.80;86.86;101013.50;1969269;30;19930;-69
2022/09/13 05:02:04;;;;;;;;;;;;;;;17.81;86.95;101015.06;1970276;29;19971;-69
2022/09/13 05:03:07;;;;;;;;;;;;;;;17.81;86.88;101012.34;1984892;29;20390;-70
2022/09/13 05:04:09;;;;;;;;;;;;;;;17.81;86.83;101013.13;1984836;29;19933;-69
2022/09/13 05:05:12;;;;;;;;;;;;;;;17.81;86.22;101020.53;1984483;29;20287;-70
2022/09/13 05:06:16;;;;;;;;;;;;;;;17.80;86.38;101017.03;1976595;29;20418;-70
2022/09/13 05:07:20;;;;;;;;;;;;;;;17.79;86.77;101009.22;1977293;29;20299;-69
2022/09/13 05:08:22;;;;;;;;;;;;;;;17.76;87.33;101004.50;1984975;29;19929;-70
2022/09/13 05:09:25;;;;;;;;;;;;;;;17.75;86.96;101011.94;1985863;29;19938;-69
2022/09/13 05:10:27;;;;;;;;;;;;;;;17.74;86.88;101013.09;1984262;29;20271;-70
2022/09/13 05:11:30;;;;;;;;;;;;;;;17.74;86.76;101017.78;1976566;30;19929;-70
2022/09/13 05:12:31;;;;;;;;;;;;;;;17.76;87.12;101009.97;1976386;29;19929;-70
2022/09/13 05:13:34;;;;;;;;;;;;;;;17.76;87.30;101013.50;1985276;29;19929;-69
2022/09/13 05:14:36;;;;;;;;;;;;;;;17.79;87.21;101007.25;1984285;29;19930;-70
2022/09/13 05:15:38;;;;;;;;;;;;;;;17.81;87.33;101017.81;1984240;29;20306;-70
2022/09/13 05:16:40;;;;;;;;;;;;;;;17.82;87.04;101011.19;1983979;29;19929;-69
2022/09/13 05:17:43;;;;;;;;;;;;;;;17.83;86.96;101010.81;1983983;29;19992;-69
2022/09/13 05:18:44;;;;;;;;;;;;;;;17.85;87.10;101008.44;1984825;29;20412;-70
2022/09/13 05:19:48;;;;;;;;;;;;;;;17.87;87.51;101010.78;1984687;29;19956;-69
2022/09/13 05:20:52;;;;;;;;;;;;;;;17.89;87.01;101013.94;1984880;29;20069;-71
2022/09/13 05:21:55;;;;;;;;;;;;;;;17.92;87.01;101017.88;1984046;29;20497;-70
2022/09/13 05:22:58;;;;;;;;;;;;;;;17.92;86.59;101015.13;1984416;29;19942;-70
2022/09/13 05:24:01;;;;;;;;;;;;;;;17.92;86.66;101013.16;1984575;29;20418;-70
2022/09/13 05:25:03;;;;;;;;;;;;;;;17.92;86.62;101013.94;1979069;29;19925;-70
2022/09/13 05:26:06;;;;;;;;;;;;;;;17.93;86.86;101007.31;1978096;29;20421;-70
2022/09/13 05:27:09;;;;;;;;;;;;;;;17.94;86.66;101008.09;1976904;29;19933;-70
2022/09/13 05:28:12;;;;;;;;;;;;;;;17.96;86.68;101004.97;1976531;29;20489;-71
2022/09/13 05:29:13;;;;;;;;;;;;;;;17.98;87.18;101000.72;1985158;29;19941;-71
2022/09/13 05:30:16;;;;;;;;;;;;;;;18.00;86.64;101009.28;1984546;29;19929;-70
2022/09/13 05:31:19;;;;;;;;;;;;;;;18.00;86.79;101009.28;1975433;30;19994;-71
2022/09/13 05:32:21;;;;;;;;;;;;;;;18.03;86.35;101007.75;1976223;29;19983;-70
2022/09/13 05:33:23;;;;;;;;;;;;;;;18.03;86.19;101013.97;1984740;29;19952;-71